Terminal Aerodrome Forecast
Issued by NWS Sterling, VA

Current Version | Previous Version | Text Only | Print | Product List | Glossary Off
Versions: 1 2 3 4 5 6 7 8 9 10 11 12 13 14 15 16 17 18 19 20 21 22

000
FTUS41 KLWX 300857 AAA
TAFIAD
TAF AMD
KIAD 300857Z 3009/0112 05012KT 6SM -DZ OVC010
     FM301200 06013G17KT 5SM -DZ OVC008
     FM302300 06010KT 5SM -SHRADZ OVC008
     FM010600 05005KT 5SM -SHRADZ OVC008=

USA.gov is the U.S. government's official web portal to all federal, state and local government web resources and services.